Time;durP1;ratioP1;P1;durP2;ratioP2;P2;SDS_P1;SDS_P2;PMS_P1;PMS_P2;Temp;Humidity;BMP_temperature;BMP_pressure;BME280_temperature;BME280_humidity;BME280_pressure;Samples;Min_cycle;Max_cycle;Signal;HPM_P1;HPM_P2
2023/04/26 00:00:46;;;;;;;13.07;10.83;;;;;;;3.96;100.00;101270.22;5072298;28;20981;-48
2023/04/26 00:03:13;;;;;;;21.40;11.87;;;;;;;3.91;100.00;101266.19;5071717;28;20450;-44
2023/04/26 00:05:43;;;;;;;20.73;11.20;;;;;;;3.87;100.00;101264.81;5072104;28;20978;-44
2023/04/26 00:08:10;;;;;;;11.50;11.00;;;;;;;3.83;100.00;101266.06;5071628;28;20499;-44
2023/04/26 00:10:39;;;;;;;12.07;11.00;;;;;;;3.81;100.00;101267.19;5072212;28;20438;-46
2023/04/26 00:13:07;;;;;;;13.00;10.93;;;;;;;3.77;100.00;101263.97;5071634;28;20920;-46
2023/04/26 00:15:35;;;;;;;14.80;12.17;;;;;;;3.73;100.00;101267.84;5071982;28;20528;-48
2023/04/26 00:18:03;;;;;;;11.97;10.80;;;;;;;3.72;100.00;101273.28;5071918;28;20450;-45
2023/04/26 00:20:30;;;;;;;13.23;11.90;;;;;;;3.72;100.00;101273.28;5063203;28;20474;-47
2023/04/26 00:23:00;;;;;;;11.87;10.93;;;;;;;3.71;100.00;101280.38;5071761;28;20434;-44
2023/04/26 00:25:28;;;;;;;14.17;12.80;;;;;;;3.69;100.00;101277.03;5071850;28;20460;-44
2023/04/26 00:27:56;;;;;;;12.70;11.40;;;;;;;3.71;100.00;101276.88;5071697;28;20454;-45
2023/04/26 00:30:23;;;;;;;12.50;11.67;;;;;;;3.89;100.00;101281.31;5070726;28;20462;-45
2023/04/26 00:32:51;;;;;;;14.13;13.23;;;;;;;4.03;100.00;101279.25;5072247;28;20846;-44
2023/04/26 00:35:19;;;;;;;14.27;12.37;;;;;;;4.10;100.00;101267.13;5071923;28;20576;-46
2023/04/26 00:37:47;;;;;;;12.97;12.03;;;;;;;4.15;100.00;101283.41;5071889;28;20486;-46
2023/04/26 00:40:16;;;;;;;13.80;12.73;;;;;;;4.16;100.00;101267.41;5071338;28;20485;-43
2023/04/26 00:42:44;;;;;;;12.40;11.60;;;;;;;4.18;100.00;101273.34;5070941;28;20466;-47
2023/04/26 00:45:11;;;;;;;13.17;12.20;;;;;;;4.24;100.00;101272.78;5071606;28;20442;-45
2023/04/26 00:47:39;;;;;;;13.00;12.20;;;;;;;4.28;100.00;101282.09;5071834;28;20449;-48
2023/04/26 00:50:09;;;;;;;13.40;12.60;;;;;;;4.32;100.00;101277.38;5068544;28;20492;-46
2023/04/26 00:52:38;;;;;;;12.73;11.80;;;;;;;4.36;100.00;101270.84;5071382;28;20434;-44
2023/04/26 00:55:07;;;;;;;14.37;12.97;;;;;;;4.38;100.00;101268.88;5071571;28;20472;-45
2023/04/26 00:57:36;;;;;;;14.97;13.00;;;;;;;4.44;100.00;101268.31;5071539;28;20454;-49
2023/04/26 01:00:05;;;;;;;12.77;11.80;;;;;;;4.42;100.00;101275.53;5071361;28;20894;-52
2023/04/26 01:02:33;;;;;;;13.90;12.70;;;;;;;4.39;100.00;101271.34;5071578;28;20442;-48
2023/04/26 01:05:01;;;;;;;13.40;12.43;;;;;;;4.35;100.00;101267.34;5071607;28;20427;-49
2023/04/26 01:07:29;;;;;;;13.73;12.37;;;;;;;4.37;100.00;101281.25;5071514;28;20812;-47
2023/04/26 01:09:58;;;;;;;13.23;12.33;;;;;;;4.42;100.00;101281.63;5070736;28;20470;-45
2023/04/26 01:12:26;;;;;;;14.40;13.20;;;;;;;4.45;100.00;101286.63;5071177;28;20434;-49
2023/04/26 01:14:56;;;;;;;12.17;11.20;;;;;;;4.40;100.00;101283.59;5071428;28;20478;-46
2023/04/26 01:17:24;;;;;;;12.83;11.63;;;;;;;4.38;100.00;101287.34;5071792;28;20442;-50
2023/04/26 01:19:52;;;;;;;12.93;11.63;;;;;;;4.37;100.00;101291.81;5070900;28;20462;-47
2023/04/26 01:22:20;;;;;;;12.53;11.60;;;;;;;4.40;100.00;101285.41;5071153;28;20422;-43
2023/04/26 01:24:51;;;;;;;14.10;12.37;;;;;;;4.41;100.00;101298.47;5071310;28;20959;-49
2023/04/26 01:27:19;;;;;;;12.40;11.80;;;;;;;4.42;100.00;101296.66;5071586;28;20453;-47
2023/04/26 01:29:46;;;;;;;16.00;13.37;;;;;;;4.44;100.00;101284.97;5070534;28;20461;-45
2023/04/26 01:32:14;;;;;;;13.53;12.53;;;;;;;4.46;100.00;101292.75;5071133;28;20430;-47
2023/04/26 01:34:42;;;;;;;12.03;11.20;;;;;;;4.47;100.00;101295.25;5071155;28;21001;-50
2023/04/26 01:37:10;;;;;;;13.00;11.90;;;;;;;4.52;100.00;101294.81;5071467;28;20520;-47
2023/04/26 01:39:38;;;;;;;13.87;13.10;;;;;;;4.47;100.00;101300.53;5070785;28;20450;-48
2023/04/26 01:42:07;;;;;;;13.97;13.03;;;;;;;4.53;100.00;101295.66;5071132;28;20441;-50
2023/04/26 01:44:34;;;;;;;12.90;12.07;;;;;;;4.53;100.00;101293.00;5071131;28;20430;-46
2023/04/26 01:47:03;;;;;;;14.13;13.23;;;;;;;4.49;100.00;101292.47;5071101;28;20465;-46
2023/04/26 01:49:31;;;;;;;13.73;12.63;;;;;;;4.49;100.00;101295.09;5068715;28;20454;-48
2023/04/26 01:51:59;;;;;;;14.63;13.50;;;;;;;4.47;100.00;101295.25;5071023;28;20434;-45
2023/04/26 01:54:27;;;;;;;12.10;11.40;;;;;;;4.47;100.00;101299.69;5074330;28;20430;-50
2023/04/26 01:56:54;;;;;;;13.33;12.10;;;;;;;4.39;100.00;101302.25;5074659;28;20883;-49
2023/04/26 01:59:23;;;;;;;12.60;12.00;;;;;;;4.34;100.00;101292.09;5074333;28;20441;-47
2023/04/26 02:01:51;;;;;;;13.30;12.07;;;;;;;4.24;100.00;101288.63;5074470;28;20503;-50
2023/04/26 02:04:19;;;;;;;13.70;11.90;;;;;;;4.25;100.00;101297.38;5074691;28;20932;-47
2023/04/26 02:06:46;;;;;;;12.20;11.50;;;;;;;4.22;100.00;101298.50;5074800;28;20469;-50
2023/04/26 02:09:14;;;;;;;12.70;11.77;;;;;;;4.20;100.00;101300.47;5073995;28;20441;-48
2023/04/26 02:11:42;;;;;;;12.50;11.63;;;;;;;4.17;100.00;101306.03;5074805;28;20524;-47
2023/04/26 02:14:09;;;;;;;13.47;12.27;;;;;;;4.16;100.00;101298.22;5074685;28;20430;-51
2023/04/26 02:16:39;;;;;;;12.93;12.17;;;;;;;4.17;100.00;101307.81;5074561;28;20478;-48
2023/04/26 02:19:09;;;;;;;12.77;12.00;;;;;;;4.14;100.00;101306.31;5074116;28;20962;-46
2023/04/26 02:21:51;;;;;;;12.70;11.83;;;;;;;4.10;100.00;101301.44;5074407;28;21274;-44
2023/04/26 02:24:20;;;;;;;13.73;12.27;;;;;;;4.06;100.00;101303.53;5074352;28;20525;-47
2023/04/26 02:26:47;;;;;;;13.77;12.63;;;;;;;4.03;100.00;101297.72;5073989;28;20964;-44
2023/04/26 02:29:15;;;;;;;12.90;12.10;;;;;;;3.97;100.00;101307.03;5073856;28;20431;-47
2023/04/26 02:31:44;;;;;;;12.47;11.40;;;;;;;3.89;100.00;101296.31;5074209;28;20435;-48
2023/04/26 02:34:12;;;;;;;13.87;12.60;;;;;;;3.82;100.00;101297.88;5074407;28;20430;-48
2023/04/26 02:36:40;;;;;;;12.67;11.93;;;;;;;3.73;100.00;101294.25;5073903;28;20852;-45
2023/04/26 02:39:08;;;;;;;11.73;11.00;;;;;;;3.68;100.00;101290.34;5073456;28;20525;-45
2023/04/26 02:41:36;;;;;;;11.90;11.00;;;;;;;3.59;100.00;101289.38;5073674;28;20903;-48
2023/04/26 02:44:03;;;;;;;12.90;11.80;;;;;;;3.53;100.00;101289.94;5073939;28;20548;-47
2023/04/26 02:46:31;;;;;;;13.53;12.60;;;;;;;3.48;100.00;101286.88;5073866;28;20439;-48
2023/04/26 02:49:00;;;;;;;13.23;12.27;;;;;;;3.45;100.00;101296.88;5073982;28;20435;-50
2023/04/26 02:51:28;;;;;;;13.90;13.13;;;;;;;3.43;100.00;101297.03;5073141;28;20493;-43
2023/04/26 02:53:55;;;;;;;13.73;12.93;;;;;;;3.37;100.00;101294.94;5073659;28;20431;-48
2023/04/26 02:56:23;;;;;;;14.37;13.20;;;;;;;3.32;100.00;101295.31;5073669;28;20880;-48
2023/04/26 02:58:51;;;;;;;13.43;12.33;;;;;;;3.32;100.00;101294.50;5073506;28;20426;-45
2023/04/26 03:01:19;;;;;;;14.03;12.90;;;;;;;3.30;100.00;101301.72;5073041;28;20840;-45
2023/04/26 03:03:48;;;;;;;13.87;12.60;;;;;;;3.25;100.00;101302.13;5073480;28;20928;-44
2023/04/26 03:06:17;;;;;;;14.47;13.43;;;;;;;3.29;100.00;101307.94;5072896;28;20513;-47
2023/04/26 03:08:45;;;;;;;14.03;12.93;;;;;;;3.25;100.00;101312.69;5073431;28;20473;-45
2023/04/26 03:11:12;;;;;;;13.87;13.17;;;;;;;3.24;100.00;101316.28;5068858;28;21017;-44
2023/04/26 03:13:40;;;;;;;14.70;13.60;;;;;;;3.24;100.00;101304.88;5073220;28;20526;-47
2023/04/26 03:16:08;;;;;;;16.00;14.03;;;;;;;3.21;100.00;101302.53;5073258;28;20470;-46
2023/04/26 03:18:36;;;;;;;13.37;12.67;;;;;;;3.23;100.00;101301.41;5073138;28;20808;-50
2023/04/26 03:21:03;;;;;;;13.97;12.90;;;;;;;3.24;100.00;101299.63;5068430;28;20462;-48
2023/04/26 03:23:33;;;;;;;14.23;13.33;;;;;;;3.24;100.00;101296.97;5073121;28;20426;-45
2023/04/26 03:26:00;;;;;;;14.27;13.27;;;;;;;3.25;100.00;101298.66;5073072;28;20427;-45
2023/04/26 03:28:28;;;;;;;13.63;12.73;;;;;;;3.27;100.00;101300.19;5072924;28;20457;-45
2023/04/26 03:30:56;;;;;;;13.27;12.33;;;;;;;3.28;100.00;101296.59;5072289;28;20455;-48
2023/04/26 03:33:23;;;;;;;13.20;12.50;;;;;;;3.26;100.00;101295.03;5072801;28;20924;-46
2023/04/26 03:35:51;;;;;;;14.23;13.23;;;;;;;3.27;100.00;101294.06;5072745;28;20447;-46
2023/04/26 03:38:19;;;;;;;14.07;13.03;;;;;;;3.26;100.00;101297.66;5072781;28;20461;-47
2023/04/26 03:40:48;;;;;;;15.67;14.20;;;;;;;3.29;100.00;101310.56;5067899;28;20446;-46
2023/04/26 03:43:15;;;;;;;16.30;14.63;;;;;;;3.35;100.00;101299.50;5072726;28;20430;-46
2023/04/26 03:45:47;;;;;;;13.80;12.90;;;;;;;3.45;100.00;101302.97;5072553;28;20447;-46
2023/04/26 03:48:15;;;;;;;14.93;13.50;;;;;;;3.69;100.00;101295.50;5072465;28;20477;-45
2023/04/26 03:50:45;;;;;;;15.77;14.73;;;;;;;3.87;100.00;101295.63;5072987;28;20525;-50
2023/04/26 03:53:12;;;;;;;17.10;15.60;;;;;;;3.97;100.00;101285.91;5072315;28;20864;-46
2023/04/26 03:55:40;;;;;;;15.57;14.77;;;;;;;4.03;100.00;101295.91;5072539;28;20506;-48
2023/04/26 03:58:09;;;;;;;16.80;15.47;;;;;;;4.07;100.00;101291.16;5072317;28;20485;-48
2023/04/26 04:00:38;;;;;;;15.97;14.43;;;;;;;4.09;100.00;101291.88;5072400;28;20431;-48
2023/04/26 04:03:06;;;;;;;16.20;14.70;;;;;;;4.07;100.00;101297.28;5069737;28;21019;-45
2023/04/26 04:05:34;;;;;;;15.60;14.40;;;;;;;4.05;100.00;101293.13;5072585;28;20800;-46
2023/04/26 04:08:02;;;;;;;13.63;13.03;;;;;;;4.00;100.00;101287.44;5072256;28;20482;-50
2023/04/26 04:10:30;;;;;;;15.10;14.00;;;;;;;3.96;100.00;101289.53;5072233;28;20430;-52
2023/04/26 04:12:58;;;;;;;21.47;15.33;;;;;;;3.94;100.00;101291.47;5071448;28;20467;-47
2023/04/26 04:15:27;;;;;;;15.73;14.53;;;;;;;3.99;100.00;101296.31;5072236;28;20533;-48
2023/04/26 04:17:54;;;;;;;14.23;13.30;;;;;;;4.03;100.00;101295.06;5071428;28;20481;-45
2023/04/26 04:20:22;;;;;;;14.30;13.60;;;;;;;4.01;100.00;101291.72;5072303;28;20430;-48
2023/04/26 04:22:50;;;;;;;15.77;13.93;;;;;;;4.06;100.00;101298.25;5071491;28;20466;-50
2023/04/26 04:25:20;;;;;;;15.23;14.33;;;;;;;4.11;100.00;101303.94;5072085;28;20430;-50
2023/04/26 04:27:49;;;;;;;15.13;13.90;;;;;;;4.19;100.00;101298.78;5071820;28;20960;-49
2023/04/26 04:30:16;;;;;;;14.50;13.67;;;;;;;4.42;100.00;101307.22;5072209;28;20434;-44
2023/04/26 04:32:46;;;;;;;15.40;14.37;;;;;;;4.57;100.00;101303.13;5066312;28;20470;-47
2023/04/26 04:35:14;;;;;;;15.03;13.97;;;;;;;4.78;100.00;101316.97;5071903;28;20436;-47
2023/04/26 04:37:44;;;;;;;15.13;14.00;;;;;;;5.05;100.00;101313.50;5071842;28;20477;-46
2023/04/26 04:40:12;;;;;;;16.30;15.20;;;;;;;5.27;100.00;101315.75;5071758;28;20437;-51
2023/04/26 04:42:43;;;;;;;14.60;13.40;;;;;;;5.52;100.00;101303.63;5071181;28;20552;-50
2023/04/26 04:45:11;;;;;;;15.20;13.60;;;;;;;5.65;100.00;101309.34;5071696;28;20427;-49
2023/04/26 04:47:39;;;;;;;14.30;13.10;;;;;;;5.80;100.00;101310.50;5071871;28;20473;-47
2023/04/26 04:50:09;;;;;;;14.10;13.27;;;;;;;5.92;100.00;101305.81;5071861;28;20781;-46
2023/04/26 04:52:37;;;;;;;14.07;13.00;;;;;;;6.19;100.00;101310.19;5071022;28;20468;-49
2023/04/26 04:55:05;;;;;;;15.57;14.23;;;;;;;6.57;100.00;101307.16;5071732;28;20805;-47
2023/04/26 04:57:33;;;;;;;14.43;13.67;;;;;;;7.32;100.00;101295.66;5071485;28;20474;-48
2023/04/26 05:00:06;;;;;;;12.73;12.03;;;;;;;7.96;100.00;101305.56;5071665;28;20430;-49
2023/04/26 05:02:34;;;;;;;14.40;13.00;;;;;;;8.63;100.00;101306.19;5049396;28;20466;-44
2023/04/26 05:05:03;;;;;;;13.33;12.53;;;;;;;8.80;100.00;101298.00;5061189;28;20936;-44
2023/04/26 05:07:33;;;;;;;14.23;12.60;;;;;;;9.26;100.00;101301.59;5071655;28;20450;-47
2023/04/26 05:10:02;;;;;;;14.83;13.70;;;;;;;9.62;100.00;101291.22;5071604;28;20435;-46
2023/04/26 05:12:30;;;;;;;14.63;13.50;;;;;;;10.14;100.00;101298.53;5071054;28;20461;-45
2023/04/26 05:14:58;;;;;;;13.30;12.30;;;;;;;10.63;97.70;101290.88;5071436;28;20438;-46
2023/04/26 05:17:25;;;;;;;12.50;11.60;;;;;;;11.15;86.51;101294.25;5071262;28;20891;-52
2023/04/26 05:19:53;;;;;;;15.60;12.43;;;;;;;11.54;84.51;101297.38;5071365;28;20430;-50
2023/04/26 05:22:21;;;;;;;11.67;10.70;;;;;;;11.79;77.00;101300.53;5071439;28;20431;-50
2023/04/26 05:24:51;;;;;;;11.63;10.87;;;;;;;11.68;74.31;101302.84;5070396;28;20446;-47
2023/04/26 05:27:18;;;;;;;12.20;11.23;;;;;;;12.14;69.30;101307.63;5071377;28;20450;-46
2023/04/26 05:29:46;;;;;;;12.57;11.47;;;;;;;12.55;66.27;101298.88;5075320;28;20431;-46
2023/04/26 05:32:14;;;;;;;12.40;11.60;;;;;;;13.12;65.65;101307.47;5075042;28;20939;-49
2023/04/26 05:34:41;;;;;;;12.13;10.93;;;;;;;13.35;70.28;101300.97;5069479;28;20477;-49
2023/04/26 05:37:09;;;;;;;10.87;9.97;;;;;;;13.94;65.73;101307.31;5074996;28;20481;-52
2023/04/26 05:39:37;;;;;;;11.40;10.60;;;;;;;14.11;60.09;101308.53;5075275;28;20437;-46
2023/04/26 05:42:06;;;;;;;11.70;10.63;;;;;;;14.67;61.89;101305.41;5075014;28;20434;-45
2023/04/26 05:44:33;;;;;;;9.77;8.80;;;;;;;15.06;61.67;101305.31;5074542;28;20458;-51
2023/04/26 05:47:01;;;;;;;9.93;8.80;;;;;;;15.48;57.55;101303.91;5074633;28;20878;-48
2023/04/26 05:49:28;;;;;;;10.30;9.50;;;;;;;15.90;58.52;101302.41;5073980;28;20781;-48
2023/04/26 05:51:59;;;;;;;11.00;10.10;;;;;;;16.32;57.98;101308.91;5074873;28;20440;-49
2023/04/26 05:54:26;;;;;;;9.83;9.00;;;;;;;16.43;52.80;101305.50;5074406;28;20470;-50
2023/04/26 05:56:54;;;;;;;9.60;8.77;;;;;;;16.50;53.29;101306.28;5074848;28;20450;-46
2023/04/26 05:59:26;;;;;;;8.97;8.27;;;;;;;16.63;48.47;101310.75;5074729;28;20425;-45
2023/04/26 06:01:54;;;;;;;10.50;9.70;;;;;;;16.41;47.50;101307.59;5074691;28;20440;-48
2023/04/26 06:04:22;;;;;;;9.20;8.30;;;;;;;16.45;49.37;101312.34;5050801;28;20478;-48
2023/04/26 06:06:50;;;;;;;10.93;8.10;;;;;;;16.85;47.20;101309.25;5069241;28;20457;-46
2023/04/26 06:09:18;;;;;;;12.20;9.40;;;;;;;16.55;45.47;101318.06;5074669;28;20430;-50
2023/04/26 06:11:47;;;;;;;8.43;7.57;;;;;;;16.86;50.59;101317.13;5074398;28;20429;-52
2023/04/26 06:14:14;;;;;;;9.93;7.30;;;;;;;16.76;49.36;101315.97;5074201;28;20465;-50
2023/04/26 06:16:58;;;;;;;8.10;7.40;;;;;;;17.28;49.61;101311.88;5074477;28;20475;-53
2023/04/26 06:19:25;;;;;;;7.13;6.43;;;;;;;16.74;44.85;101313.53;5074351;28;20478;-51
2023/04/26 06:21:55;;;;;;;8.57;7.07;;;;;;;16.38;44.29;101321.50;5074254;28;20429;-49
2023/04/26 06:24:24;;;;;;;10.80;6.63;;;;;;;15.99;47.82;101318.09;5073807;28;20477;-46
2023/04/26 06:26:52;;;;;;;7.40;6.70;;;;;;;15.04;49.07;101320.00;5074472;28;20813;-50
2023/04/26 06:29:20;;;;;;;7.23;6.57;;;;;;;14.48;48.46;101323.22;5074548;28;20784;-46
2023/04/26 06:31:48;;;;;;;7.27;6.53;;;;;;;13.13;52.18;101325.19;5074080;28;20517;-49
2023/04/26 06:34:17;;;;;;;8.57;7.90;;;;;;;12.73;57.84;101329.47;5072017;28;20469;-53
2023/04/26 06:36:46;;;;;;;7.50;7.00;;;;;;;12.09;59.00;101328.78;5074424;28;20442;-50
2023/04/26 06:39:13;;;;;;;8.03;7.23;;;;;;;11.54;59.39;101329.41;5073383;28;20466;-53
2023/04/26 06:41:42;;;;;;;8.07;7.33;;;;;;;11.78;63.24;101335.44;5073690;28;20434;-52
2023/04/26 06:44:10;;;;;;;7.33;6.67;;;;;;;11.97;62.60;101338.34;5073580;28;20462;-45
2023/04/26 06:46:37;;;;;;;8.00;7.37;;;;;;;11.93;61.83;101344.25;5073514;28;20558;-45
2023/04/26 06:49:05;;;;;;;7.83;7.20;;;;;;;12.42;59.58;101339.75;5073818;28;20434;-47
2023/04/26 06:51:35;;;;;;;9.03;8.23;;;;;;;12.38;61.96;101334.97;5073323;28;20440;-46
2023/04/26 06:54:03;;;;;;;7.30;6.90;;;;;;;12.67;59.22;101332.09;5073266;28;20464;-46
2023/04/26 06:56:31;;;;;;;7.07;6.47;;;;;;;12.46;56.72;101343.69;5073580;28;20434;-51
2023/04/26 06:59:00;;;;;;;10.03;6.43;;;;;;;12.48;59.07;101340.81;5073638;28;20777;-46
2023/04/26 07:01:28;;;;;;;7.50;6.63;;;;;;;12.44;56.86;101337.72;5073472;28;20437;-51
2023/04/26 07:03:56;;;;;;;9.03;6.50;;;;;;;11.49;60.00;101342.53;5059387;28;20462;-50
2023/04/26 07:06:26;;;;;;;8.43;6.80;;;;;;;12.19;59.95;101336.47;5073439;28;20438;-47
2023/04/26 07:08:55;;;;;;;7.40;6.90;;;;;;;12.96;58.26;101325.69;5073646;28;20422;-45
2023/04/26 07:11:22;;;;;;;6.57;6.20;;;;;;;12.40;57.14;101341.78;5073384;28;20434;-45
2023/04/26 07:13:52;;;;;;;7.03;6.43;;;;;;;11.53;65.36;101345.63;5073103;28;20505;-53
2023/04/26 07:16:20;;;;;;;8.43;6.90;;;;;;;11.45;63.74;101348.41;5073237;28;20941;-45
2023/04/26 07:18:48;;;;;;;9.97;6.20;;;;;;;10.51;71.60;101359.84;5073558;28;20469;-47
2023/04/26 07:21:16;;;;;;;6.50;6.00;;;;;;;10.92;74.55;101360.25;5073193;28;20487;-45
2023/04/26 07:23:44;;;;;;;6.20;5.77;;;;;;;10.84;70.27;101361.16;5067914;28;20449;-46
2023/04/26 07:26:13;;;;;;;7.50;6.40;;;;;;;10.97;72.84;101348.00;5073313;28;20505;-46
2023/04/26 07:28:41;;;;;;;6.73;5.70;;;;;;;11.27;68.34;101361.31;5073196;28;20510;-45
2023/04/26 07:31:09;;;;;;;6.27;5.80;;;;;;;10.98;66.09;101355.00;5072918;28;20433;-46
2023/04/26 07:33:38;;;;;;;7.27;6.57;;;;;;;11.18;66.38;101363.28;5073111;28;20488;-48
2023/04/26 07:36:06;;;;;;;7.07;6.40;;;;;;;11.29;69.02;101362.78;5067915;28;20466;-45
2023/04/26 07:38:34;;;;;;;7.23;6.37;;;;;;;11.40;68.44;101362.34;5072947;28;20809;-51
2023/04/26 07:41:02;;;;;;;7.23;6.47;;;;;;;11.51;72.04;101366.34;5072894;28;20430;-45
2023/04/26 07:43:31;;;;;;;7.17;6.47;;;;;;;11.21;68.71;101360.22;5072678;28;20994;-47
2023/04/26 07:46:00;;;;;;;8.33;6.07;;;;;;;10.99;73.42;101369.19;5072286;28;20496;-50
2023/04/26 07:48:28;;;;;;;7.03;6.23;;;;;;;10.48;74.99;101368.19;5072558;28;20909;-47
2023/04/26 07:50:56;;;;;;;8.30;7.63;;;;;;;10.54;79.95;101364.81;5072414;28;20462;-48
2023/04/26 07:53:24;;;;;;;7.37;6.67;;;;;;;10.28;78.71;101365.19;5072384;28;20426;-49
2023/04/26 07:55:52;;;;;;;7.57;6.97;;;;;;;10.49;81.16;101372.50;5071636;28;20466;-46
2023/04/26 07:58:20;;;;;;;6.60;6.10;;;;;;;9.92;81.67;101369.44;5072151;28;20451;-48
2023/04/26 08:00:49;;;;;;;7.23;6.63;;;;;;;10.57;82.46;101367.91;5072182;28;21070;-47
2023/04/26 08:03:17;;;;;;;6.67;6.27;;;;;;;10.34;77.42;101367.13;5072182;28;20796;-51
2023/04/26 08:05:45;;;;;;;7.63;6.53;;;;;;;10.46;84.54;101365.69;5069355;28;20542;-49
2023/04/26 08:08:14;;;;;;;7.10;6.40;;;;;;;10.91;81.23;101367.41;5072029;28;20975;-47
2023/04/26 08:10:43;;;;;;;7.23;6.53;;;;;;;11.28;77.05;101363.00;5072112;28;20789;-52
2023/04/26 08:13:11;;;;;;;9.00;6.67;;;;;;;11.45;74.86;101367.94;5072172;28;20479;-47
2023/04/26 08:15:39;;;;;;;7.43;6.90;;;;;;;11.73;74.77;101362.75;5071652;28;20466;-48
2023/04/26 08:18:08;;;;;;;6.93;6.40;;;;;;;11.76;73.74;101366.88;5072208;28;20446;-45
2023/04/26 08:20:36;;;;;;;7.60;5.93;;;;;;;12.30;72.23;101372.56;5071891;28;20474;-50
2023/04/26 08:23:03;;;;;;;6.63;5.90;;;;;;;12.71;69.88;101371.66;5071816;28;20453;-49
2023/04/26 08:25:33;;;;;;;5.90;5.43;;;;;;;12.58;65.54;101378.75;5071506;28;20462;-48
2023/04/26 08:28:01;;;;;;;6.57;6.07;;;;;;;12.14;59.33;101373.66;5071961;28;20449;-49
2023/04/26 08:30:29;;;;;;;6.07;5.57;;;;;;;11.84;67.64;101380.13;5071756;28;20431;-47
2023/04/26 08:32:57;;;;;;;7.30;6.13;;;;;;;11.82;67.56;101374.16;5071755;28;20450;-49
2023/04/26 08:35:26;;;;;;;5.93;5.30;;;;;;;11.18;74.59;101383.78;5071317;28;20466;-45
2023/04/26 08:37:54;;;;;;;8.83;5.90;;;;;;;11.75;72.68;101378.59;5071865;28;20470;-48
2023/04/26 08:40:23;;;;;;;11.17;6.03;;;;;;;11.82;74.44;101382.16;5071863;28;20470;-48
2023/04/26 08:42:52;;;;;;;6.90;5.60;;;;;;;12.24;75.49;101389.38;5071452;28;20508;-51
2023/04/26 08:45:20;;;;;;;5.70;5.20;;;;;;;12.11;67.59;101395.41;5071178;28;20851;-50
2023/04/26 08:47:49;;;;;;;6.50;5.67;;;;;;;11.55;68.69;101397.03;5071568;28;20656;-46
2023/04/26 08:50:20;;;;;;;4.90;4.63;;;;;;;11.14;81.68;101404.69;5071427;28;20427;-46
2023/04/26 08:52:51;;;;;;;4.90;4.70;;;;;;;10.44;93.91;101420.22;5071476;28;20481;-46
2023/04/26 08:55:20;;;;;;;4.53;4.30;;;;;;;10.01;100.00;101421.66;5071355;28;20856;-47
2023/04/26 08:57:49;;;;;;;4.87;4.47;;;;;;;9.78;100.00;101426.97;5071753;28;20454;-51
2023/04/26 09:00:18;;;;;;;5.47;5.00;;;;;;;9.32;100.00;101430.47;5071502;28;20984;-46
2023/04/26 09:02:47;;;;;;;4.53;4.30;;;;;;;9.17;100.00;101419.72;5070564;28;20442;-44
2023/04/26 09:05:15;;;;;;;5.17;4.87;;;;;;;8.90;100.00;101420.94;5068167;28;20465;-50
2023/04/26 09:07:45;;;;;;;5.80;5.27;;;;;;;9.18;100.00;101421.38;5071626;28;20456;-49
2023/04/26 09:10:19;;;;;;;5.87;5.40;;;;;;;9.52;100.00;101431.75;5071438;28;20468;-49
2023/04/26 09:12:51;;;;;;;5.63;5.33;;;;;;;10.08;100.00;101422.63;5071301;28;20912;-45
2023/04/26 09:15:21;;;;;;;5.40;5.20;;;;;;;10.62;100.00;101411.91;5070907;28;20512;-44
2023/04/26 09:17:50;;;;;;;6.27;5.70;;;;;;;10.97;100.00;101397.88;5071431;28;20484;-44
2023/04/26 09:20:20;;;;;;;5.77;5.47;;;;;;;11.33;100.00;101398.81;5071141;28;20587;-46
2023/04/26 09:22:49;;;;;;;5.53;5.10;;;;;;;11.89;100.00;101394.56;5071036;28;20434;-48
2023/04/26 09:25:26;;;;;;;5.97;5.47;;;;;;;12.43;100.00;101402.91;5070770;28;20450;-45
2023/04/26 09:27:54;;;;;;;5.03;4.77;;;;;;;12.54;95.84;101389.03;5071339;28;21169;-47
2023/04/26 09:30:22;;;;;;;6.50;4.93;;;;;;;12.38;90.02;101393.81;5071376;28;20430;-52
2023/04/26 09:32:52;;;;;;;4.10;3.90;;;;;;;11.05;80.32;101403.16;5071180;28;20426;-45
2023/04/26 09:35:28;;;;;;;6.40;3.90;;;;;;;9.97;79.68;101412.38;5066745;28;20480;-49
2023/04/26 09:37:59;;;;;;;4.53;3.90;;;;;;;10.38;78.17;101413.78;5071030;28;20813;-45
2023/04/26 09:40:39;;;;;;;4.60;4.23;;;;;;;11.13;76.57;101408.38;5071303;28;20531;-45
2023/04/26 09:43:08;;;;;;;4.80;4.50;;;;;;;9.20;100.00;101429.22;5071192;28;20437;-48
2023/04/26 09:45:44;;;;;;;4.03;3.83;;;;;;;8.19;100.00;101446.50;5070551;28;20948;-45
2023/04/26 09:48:15;;;;;;;4.20;4.00;;;;;;;7.86;100.00;101463.38;5071147;28;20484;-44
2023/04/26 09:50:45;;;;;;;4.80;4.50;;;;;;;7.56;100.00;101465.59;5071133;28;20435;-50
2023/04/26 09:53:25;;;;;;;4.30;4.10;;;;;;;7.25;100.00;101490.97;5070893;28;20438;-47
2023/04/26 09:55:55;;;;;;;5.47;4.90;;;;;;;7.04;100.00;101491.34;5070443;28;20870;-45
2023/04/26 09:58:23;;;;;;;5.13;4.83;;;;;;;6.55;100.00;101499.88;5071110;28;20450;-45
2023/04/26 10:00:53;;;;;;;5.90;5.40;;;;;;;6.62;100.00;101498.31;5070987;28;20474;-44
2023/04/26 10:03:23;;;;;;;8.23;6.20;;;;;;;6.84;100.00;101489.84;5070909;28;20429;-49
2023/04/26 10:05:51;;;;;;;5.40;5.10;;;;;;;7.23;100.00;101477.88;5067644;28;20471;-49
2023/04/26 10:08:19;;;;;;;5.93;5.60;;;;;;;7.68;100.00;101471.44;5070896;28;20455;-48
2023/04/26 10:10:47;;;;;;;8.00;7.33;;;;;;;8.20;100.00;101464.13;5071015;28;20810;-49
2023/04/26 10:13:18;;;;;;;7.50;7.20;;;;;;;8.86;100.00;101458.72;5070688;28;20434;-47
2023/04/26 10:15:47;;;;;;;7.93;6.40;;;;;;;9.17;100.00;101456.97;5071849;28;20453;-46
2023/04/26 10:18:16;;;;;;;9.30;6.47;;;;;;;9.51;100.00;101450.56;5074394;28;20457;-49
2023/04/26 10:20:48;;;;;;;6.83;6.33;;;;;;;9.91;100.00;101443.22;5074338;28;20476;-50
2023/04/26 10:23:20;;;;;;;8.00;6.60;;;;;;;9.93;100.00;101443.03;5074102;28;20935;-47
2023/04/26 10:25:48;;;;;;;7.40;6.77;;;;;;;9.99;100.00;101437.84;5073833;28;20462;-46
2023/04/26 10:28:17;;;;;;;6.70;4.70;;;;;;;9.13;100.00;101439.72;5073924;28;20454;-45
2023/04/26 10:30:55;;;;;;;6.80;5.57;;;;;;;8.92;100.00;101459.84;5074223;28;20448;-49
2023/04/26 10:33:23;;;;;;;10.90;5.03;;;;;;;8.54;100.00;101458.72;5073618;28;20807;-45
2023/04/26 10:36:03;;;;;;;5.90;5.30;;;;;;;8.49;100.00;101474.31;5070471;28;20458;-49
2023/04/26 10:38:32;;;;;;;5.93;5.43;;;;;;;8.46;100.00;101464.84;5073607;28;20533;-47
2023/04/26 10:41:29;;;;;;;5.80;5.40;;;;;;;8.57;100.00;101458.41;5074208;28;20470;-47
2023/04/26 10:44:00;;;;;;;5.40;4.90;;;;;;;8.96;100.00;101455.88;5074291;28;20810;-46
2023/04/26 10:46:37;;;;;;;5.27;4.90;;;;;;;9.21;100.00;101449.50;5073236;28;20466;-48
2023/04/26 10:49:15;;;;;;;6.00;5.70;;;;;;;9.39;100.00;101458.09;5074326;28;20457;-47
2023/04/26 10:52:13;;;;;;;6.77;6.40;;;;;;;9.76;100.00;101436.97;5073357;28;20509;-47
2023/04/26 10:54:49;;;;;;;6.83;6.53;;;;;;;10.40;100.00;101454.41;5063479;28;20442;-45
2023/04/26 10:57:17;;;;;;;7.03;6.60;;;;;;;10.53;100.00;101441.31;5073498;28;20449;-47
2023/04/26 11:00:19;;;;;;;6.80;6.30;;;;;;;10.82;100.00;101447.72;5073924;28;20476;-47
2023/04/26 11:02:54;;;;;;;6.03;5.73;;;;;;;10.47;100.00;101438.53;5073379;28;20508;-45
2023/04/26 11:05:54;;;;;;;5.10;4.80;;;;;;;11.00;100.00;101438.38;5071293;28;20527;-44
2023/04/26 11:08:26;;;;;;;7.33;5.57;;;;;;;10.59;100.00;101436.25;4972227;28;20844;-47
2023/04/26 11:11:10;;;;;;;4.60;4.30;;;;;;;9.80;97.11;101434.78;5054076;28;20453;-44
2023/04/26 11:13:40;;;;;;;6.47;5.30;;;;;;;9.89;100.00;101441.72;5071640;28;20476;-47
2023/04/26 11:16:10;;;;;;;6.33;5.50;;;;;;;10.51;100.00;101445.19;5072852;28;20511;-44
2023/04/26 11:18:40;;;;;;;5.47;5.23;;;;;;;11.19;100.00;101444.19;5073558;28;20458;-52
2023/04/26 11:21:09;;;;;;;5.70;4.93;;;;;;;11.37;93.55;101425.97;5073366;28;20470;-45
2023/04/26 11:23:37;;;;;;;6.60;4.90;;;;;;;11.68;94.96;101427.38;5072880;28;20438;-45
2023/04/26 11:26:07;;;;;;;5.60;5.10;;;;;;;12.06;89.74;101422.75;5068137;28;20473;-48